Hakuhomaru — JJ4011 — position and weather

sailwx.info

Track history (hours):
 
Tides and Currents Weather Stations Pressure Air Temp Water Temp Dewpoint Dewpoint Depression Visibility Wind Speed Wind Dir Waves Ship Positions

Hakuhomaru

Last reported at 2015-Sep-03 02:33 UTC. Time now 2015-Sep-04 12:29 UTC.
Position N 34°41' E 135°12'.

Length 38 m; draft 3.3 m.

Type: Tug. MMSI: 431401584.

Date/timePositionNaut miles runAvg speedWind from/ knotsBaromVisibWave heightAir tempDewpointWater temp
2015-Sep-03 02:33N 34°41' E 135°12'9 8.6
2015-Sep-03 01:33N 34°39' E 135°22'3 3.0
2015-Sep-03 00:33N 34°40' E 135°19'6 5.8
2015-Sep-02 23:33N 34°41' E 135°12'0 0.0
2015-Sep-01 01:32N 34°41' E 135°12'1 1.0
2015-Sep-01 00:33N 34°40' E 135°13'1 1.0
2015-Aug-31 23:33N 34°41' E 135°12'0 0.0
2015-Aug-31 22:33N 34°41' E 135°12'0 0.0
2015-Aug-31 21:33N 34°41' E 135°12'0 0.0
2015-Aug-31 08:28N 34°41' E 135°12'2 2.0
2015-Aug-31 07:33N 34°40' E 135°14'1 1.2
2015-Aug-31 06:33N 34°41' E 135°16'  
2015-Aug-27 03:33N 34°41' E 135°13'0 0.0
2015-Aug-27 02:33N 34°41' E 135°13'2 2.2
2015-Aug-27 01:33N 34°42' E 135°15'2 1.6
2015-Aug-27 00:34N 34°40' E 135°15'0 0.2
2015-Aug-26 23:33N 34°40' E 135°15'2 2.2
2015-Aug-26 22:32N 34°41' E 135°17'1 0.9
2015-Aug-26 21:33N 34°41' E 135°17'4 3.8
2015-Aug-26 20:33N 34°41' E 135°12'0 0.0
2015-Aug-26 08:29N 34°41' E 135°12'3 2.7
2015-Aug-26 07:33N 34°42' E 135°15'0 0.0
2015-Aug-26 06:34N 34°42' E 135°15'3 2.6
2015-Aug-26 05:34N 34°41' E 135°12'0 0.0
2015-Aug-26 04:34N 34°41' E 135°12'0 0.0
2015-Aug-26 03:34N 34°41' E 135°12'0 0.0
2015-Aug-26 02:34N 34°41' E 135°12'0 0.0
2015-Aug-26 01:34N 34°41' E 135°12'0 0.0
2015-Aug-26 00:34N 34°41' E 135°12'0 0.0
2015-Aug-25 23:34N 34°41' E 135°12'4 4.0
2015-Aug-25 22:34N 34°41' E 135°17'2 1.9
2015-Aug-25 21:33N 34°41' E 135°15'2 2.1
2015-Aug-25 20:34N 34°41' E 135°12'0 0.0
2015-Aug-24 07:08N 34°41' E 135°12'0 0.0
2015-Aug-24 06:33N 34°41' E 135°12'0 0.0
2015-Aug-24 05:33N 34°41' E 135°12'0 0.0
2015-Aug-24 04:33N 34°41' E 135°12'0 0.0
2015-Aug-24 03:33N 34°41' E 135°12'  
Track history (hours):
 
Tides and Currents Weather Stations Pressure Air Temp Water Temp Dewpoint Dewpoint Depression Visibility Wind Speed Wind Dir Waves Ship Positions

Hakuhomaru

Last reported at 2015-Sep-03 02:33 UTC. Time now 2015-Sep-04 12:29 UTC.
Position N 34°41' E 135°12'.

Length 38 m; draft 3.3 m.

Type: Tug. MMSI: 431401584.

Date/timePositionNaut miles runAvg speedWind from/ knotsBaromVisibWave heightAir tempDewpointWater temp
2015-Sep-03 02:33N 34°41' E 135°12'9 8.6
2015-Sep-03 01:33N 34°39' E 135°22'3 3.0
2015-Sep-03 00:33N 34°40' E 135°19'6 5.8
2015-Sep-02 23:33N 34°41' E 135°12'0 0.0
2015-Sep-01 01:32N 34°41' E 135°12'1 1.0
2015-Sep-01 00:33N 34°40' E 135°13'1 1.0
2015-Aug-31 23:33N 34°41' E 135°12'0 0.0
2015-Aug-31 22:33N 34°41' E 135°12'0 0.0
2015-Aug-31 21:33N 34°41' E 135°12'0 0.0
2015-Aug-31 08:28N 34°41' E 135°12'2 2.0
2015-Aug-31 07:33N 34°40' E 135°14'1 1.2
2015-Aug-31 06:33N 34°41' E 135°16'  
2015-Aug-27 03:33N 34°41' E 135°13'0 0.0
2015-Aug-27 02:33N 34°41' E 135°13'2 2.2
2015-Aug-27 01:33N 34°42' E 135°15'2 1.6
2015-Aug-27 00:34N 34°40' E 135°15'0 0.2
2015-Aug-26 23:33N 34°40' E 135°15'2 2.2
2015-Aug-26 22:32N 34°41' E 135°17'1 0.9
2015-Aug-26 21:33N 34°41' E 135°17'4 3.8
2015-Aug-26 20:33N 34°41' E 135°12'0 0.0
2015-Aug-26 08:29N 34°41' E 135°12'3 2.7
2015-Aug-26 07:33N 34°42' E 135°15'0 0.0
2015-Aug-26 06:34N 34°42' E 135°15'3 2.6
2015-Aug-26 05:34N 34°41' E 135°12'0 0.0
2015-Aug-26 04:34N 34°41' E 135°12'0 0.0
2015-Aug-26 03:34N 34°41' E 135°12'0 0.0
2015-Aug-26 02:34N 34°41' E 135°12'0 0.0
2015-Aug-26 01:34N 34°41' E 135°12'0 0.0
2015-Aug-26 00:34N 34°41' E 135°12'0 0.0
2015-Aug-25 23:34N 34°41' E 135°12'4 4.0
2015-Aug-25 22:34N 34°41' E 135°17'2 1.9
2015-Aug-25 21:33N 34°41' E 135°15'2 2.1
2015-Aug-25 20:34N 34°41' E 135°12'0 0.0
2015-Aug-24 07:08N 34°41' E 135°12'0 0.0
2015-Aug-24 06:33N 34°41' E 135°12'0 0.0
2015-Aug-24 05:33N 34°41' E 135°12'0 0.0
2015-Aug-24 04:33N 34°41' E 135°12'0 0.0
2015-Aug-24 03:33N 34°41' E 135°12'  

Dump ship's entire track history